Time;durP1;ratioP1;P1;durP2;ratioP2;P2;SDS_P1;SDS_P2;PMS_P1;PMS_P2;Temp;Humidity;BMP_temperature;BMP_pressure;BME280_temperature;BME280_humidity;BME280_pressure;Samples;Min_cycle;Max_cycle;Signal;HPM_P1;HPM_P2
2023/07/20 00:01:01;;;;;;;8.90;4.53;;;;;;;15.51;100.00;101229.84;4996759;28;20038;-86
2023/07/20 00:03:27;;;;;;;10.70;4.70;;;;;;;15.44;100.00;101226.41;4963146;28;20046;-86
2023/07/20 00:05:54;;;;;;;9.73;4.20;;;;;;;15.39;100.00;101229.03;4996607;28;20391;-86
2023/07/20 00:08:22;;;;;;;8.48;4.72;;;;;;;15.36;100.00;101232.25;4978937;28;20038;-86
2023/07/20 00:10:48;;;;;;;11.55;4.82;;;;;;;15.35;100.00;101239.59;4962454;28;20394;-86
2023/07/20 00:13:15;;;;;;;12.93;4.80;;;;;;;15.32;100.00;101231.88;4978562;28;20038;-86
2023/07/20 00:15:41;;;;;;;10.57;4.55;;;;;;;15.29;100.00;101237.81;4963086;28;20109;-86
2023/07/20 00:18:06;;;;;;;9.77;4.53;;;;;;;15.28;100.00;101236.19;4978445;28;20133;-86
2023/07/20 00:20:32;;;;;;;9.52;5.00;;;;;;;15.26;100.00;101238.31;4946097;28;20475;-86
2023/07/20 00:22:58;;;;;;;10.60;5.13;;;;;;;15.23;100.00;101238.78;4994842;28;20435;-86
2023/07/20 00:25:24;;;;;;;10.83;5.23;;;;;;;15.26;100.00;101241.03;4977964;28;20030;-86
2023/07/20 00:27:50;;;;;;;11.82;5.68;;;;;;;15.32;100.00;101244.72;5010660;28;20132;-86
2023/07/20 00:30:15;;;;;;;10.20;5.22;;;;;;;15.35;100.00;101244.25;4962579;28;20120;-86
2023/07/20 00:32:42;;;;;;;10.97;5.30;;;;;;;15.36;100.00;101244.00;4995303;28;20042;-86
2023/07/20 00:35:08;;;;;;;17.73;6.03;;;;;;;15.42;100.00;101247.69;4961734;28;20091;-86
2023/07/20 00:37:33;;;;;;;11.37;5.13;;;;;;;15.46;100.00;101235.22;4962011;28;20034;-86
2023/07/20 00:40:04;;;;;;;13.00;5.57;;;;;;;15.46;100.00;101227.03;4978039;28;20028;-86
2023/07/20 00:42:29;;;;;;;9.37;5.00;;;;;;;15.42;100.00;101234.84;4947332;28;20027;-86
2023/07/20 00:44:58;;;;;;;13.63;5.53;;;;;;;15.34;100.00;101242.56;4977835;28;20042;-86
2023/07/20 00:47:23;;;;;;;14.57;5.97;;;;;;;15.23;100.00;101244.25;4978665;28;20038;-85
2023/07/20 00:49:51;;;;;;;10.63;4.97;;;;;;;15.17;100.00;101245.19;4961426;28;20062;-86
2023/07/20 00:52:16;;;;;;;11.18;5.63;;;;;;;15.08;100.00;101242.81;4962407;28;20042;-86
2023/07/20 00:54:42;;;;;;;12.97;5.57;;;;;;;15.01;100.00;101244.81;4994974;28;20117;-86
2023/07/20 00:57:09;;;;;;;9.75;5.63;;;;;;;14.95;100.00;101232.09;4961665;28;20032;-86
2023/07/20 00:59:35;;;;;;;15.27;5.60;;;;;;;14.90;100.00;101237.44;4995064;28;20026;-86
2023/07/20 01:02:01;;;;;;;11.10;4.97;;;;;;;14.83;100.00;101242.19;4977883;28;20030;-86
2023/07/20 01:04:28;;;;;;;13.55;6.00;;;;;;;14.79;100.00;101243.72;4977420;28;20041;-86
2023/07/20 01:07:06;;;;;;;11.68;5.38;;;;;;;14.76;100.00;101234.06;4977094;28;20042;-86
2023/07/20 01:09:34;;;;;;;11.65;5.75;;;;;;;14.74;100.00;101244.41;4977170;28;20033;-86
2023/07/20 01:12:08;;;;;;;12.17;5.70;;;;;;;14.71;100.00;101244.88;4977727;28;20034;-87
2023/07/20 01:14:34;;;;;;;16.60;6.07;;;;;;;14.69;100.00;101244.25;4994926;28;20034;-86
2023/07/20 01:17:02;;;;;;;13.07;6.30;;;;;;;14.69;100.00;101244.25;4977849;28;20030;-86
2023/07/20 01:19:27;;;;;;;14.00;5.75;;;;;;;14.66;100.00;101248.31;4977463;28;20034;-86
2023/07/20 01:22:26;;;;;;;16.77;5.77;;;;;;;14.63;100.00;101246.06;4977006;28;20037;-86
2023/07/20 01:25:06;;;;;;;16.77;5.97;;;;;;;14.57;100.00;101245.06;4977503;28;20034;-86
2023/07/20 01:27:55;;;;;;;18.10;6.30;;;;;;;14.51;100.00;101248.72;4994651;28;20030;-87
2023/07/20 01:30:23;;;;;;;12.80;6.57;;;;;;;14.48;100.00;101254.63;4994366;28;20026;-86
2023/07/20 01:32:50;;;;;;;14.25;6.32;;;;;;;14.55;100.00;101255.34;4977149;28;20037;-86
2023/07/20 01:35:17;;;;;;;11.88;5.53;;;;;;;14.66;100.00;101259.25;4994192;28;20529;-86
2023/07/20 01:37:45;;;;;;;15.10;6.22;;;;;;;14.74;100.00;101247.13;4960984;28;20121;-86
2023/07/20 01:40:14;;;;;;;12.57;6.05;;;;;;;14.83;100.00;101255.84;4994590;28;20046;-87
2023/07/20 01:42:45;;;;;;;13.13;6.40;;;;;;;14.90;100.00;101257.38;4976976;28;20030;-87
2023/07/20 01:45:10;;;;;;;14.63;6.60;;;;;;;14.95;100.00;101255.88;4961786;28;20030;-86
2023/07/20 01:47:35;;;;;;;16.50;6.30;;;;;;;15.03;100.00;101255.53;4994371;28;20103;-87
2023/07/20 01:50:01;;;;;;;18.67;6.63;;;;;;;15.08;100.00;101247.44;4976475;28;20177;-86
2023/07/20 01:52:26;;;;;;;12.33;6.50;;;;;;;15.14;100.00;101249.22;4977624;28;20026;-87
2023/07/20 01:54:51;;;;;;;12.67;6.27;;;;;;;15.20;100.00;101256.47;4977120;28;20419;-87
2023/07/20 01:57:19;;;;;;;14.20;6.83;;;;;;;15.22;100.00;101253.50;4976945;28;20046;-87
2023/07/20 01:59:44;;;;;;;12.43;6.80;;;;;;;15.23;100.00;101260.66;4945473;28;20030;-86
2023/07/20 02:02:10;;;;;;;13.00;6.33;;;;;;;15.30;100.00;101263.28;4961773;28;20410;-86
2023/07/20 02:04:35;;;;;;;15.03;6.47;;;;;;;15.35;100.00;101268.84;4977187;28;20030;-86
2023/07/20 02:07:01;;;;;;;12.60;6.90;;;;;;;15.37;100.00;101264.00;4976779;28;20037;-86
2023/07/20 02:09:26;;;;;;;17.42;7.38;;;;;;;15.41;100.00;101267.91;4961267;28;20038;-86
2023/07/20 02:11:51;;;;;;;15.00;7.23;;;;;;;15.42;100.00;101267.66;4994365;28;20467;-86
2023/07/20 02:14:17;;;;;;;16.43;6.87;;;;;;;15.45;100.00;101266.34;4977246;28;20053;-86
2023/07/20 02:16:42;;;;;;;13.30;7.00;;;;;;;15.49;100.00;101270.28;4960742;28;20494;-86
2023/07/20 02:19:16;;;;;;;16.03;7.17;;;;;;;15.54;100.00;101269.56;4944815;28;20085;-86
2023/07/20 02:21:42;;;;;;;18.40;7.78;;;;;;;15.57;100.00;101275.38;4961293;28;20042;-86
2023/07/20 02:24:07;;;;;;;16.37;7.90;;;;;;;15.61;100.00;101273.84;4960641;28;20072;-86
2023/07/20 02:26:33;;;;;;;18.05;7.88;;;;;;;15.64;100.00;101272.53;4993043;28;20579;-86
2023/07/20 02:28:58;;;;;;;15.80;8.47;;;;;;;15.60;100.00;101276.81;4992994;28;20455;-86
2023/07/20 02:31:23;;;;;;;17.17;9.37;;;;;;;15.62;100.00;101277.44;4960953;28;20054;-86
2023/07/20 02:33:49;;;;;;;17.07;8.87;;;;;;;15.64;100.00;101278.00;4961127;28;20031;-86
2023/07/20 02:36:16;;;;;;;14.40;9.10;;;;;;;15.69;100.00;101277.28;4944643;28;20125;-86
2023/07/20 02:38:42;;;;;;;18.35;9.35;;;;;;;15.70;100.00;101289.91;4960955;28;20034;-86
2023/07/20 02:41:07;;;;;;;15.70;10.00;;;;;;;15.72;100.00;101290.50;4945380;28;20045;-86
2023/07/20 02:43:32;;;;;;;17.60;10.50;;;;;;;15.71;100.00;101275.16;4976487;28;20027;-86
2023/07/20 02:45:58;;;;;;;18.40;10.43;;;;;;;15.69;100.00;101293.69;4993942;28;20043;-86
2023/07/20 02:48:23;;;;;;;18.00;9.57;;;;;;;15.70;100.00;101288.00;4980062;28;20065;-86
2023/07/20 02:50:49;;;;;;;15.30;9.57;;;;;;;15.72;100.00;101283.13;4979313;28;20113;-86
2023/07/20 02:53:14;;;;;;;15.93;10.60;;;;;;;15.74;100.00;101291.09;4997351;28;20096;-87
2023/07/20 02:55:39;;;;;;;19.47;11.77;;;;;;;15.70;100.00;101290.72;4980053;28;20363;-86
2023/07/20 02:58:08;;;;;;;20.02;11.90;;;;;;;15.69;100.00;101293.69;4963836;28;20037;-86
2023/07/20 03:00:33;;;;;;;19.47;11.57;;;;;;;15.66;100.00;101300.47;4979828;28;20434;-86
2023/07/20 03:03:01;;;;;;;16.35;10.68;;;;;;;15.64;100.00;101304.53;4963953;28;20038;-86
2023/07/20 03:05:27;;;;;;;17.50;11.57;;;;;;;15.66;100.00;101316.06;4964492;28;20044;-86
2023/07/20 03:07:53;;;;;;;20.00;12.60;;;;;;;15.66;100.00;101302.38;4963855;28;20041;-86
2023/07/20 03:10:19;;;;;;;17.95;11.48;;;;;;;15.60;100.00;101310.50;4997234;28;20031;-86
2023/07/20 03:12:44;;;;;;;18.63;12.37;;;;;;;15.57;100.00;101308.19;4964207;28;20046;-86
2023/07/20 03:15:10;;;;;;;19.03;12.07;;;;;;;15.57;100.00;101316.41;4979844;28;20065;-86
2023/07/20 03:17:35;;;;;;;15.85;11.35;;;;;;;15.58;100.00;101318.09;4963295;28;20546;-86
2023/07/20 03:20:01;;;;;;;17.27;11.37;;;;;;;15.59;100.00;101316.19;4997224;28;20467;-86
2023/07/20 03:22:26;;;;;;;17.93;12.23;;;;;;;15.58;100.00;101315.34;4979618;28;20026;-86
2023/07/20 03:24:52;;;;;;;15.27;10.90;;;;;;;15.58;100.00;101318.09;4979428;28;20041;-86
2023/07/20 03:27:18;;;;;;;15.87;11.63;;;;;;;15.60;100.00;101324.16;4979516;28;20038;-87
2023/07/20 03:29:44;;;;;;;16.95;11.18;;;;;;;15.58;100.00;101318.09;4979322;28;20364;-86
2023/07/20 03:32:10;;;;;;;17.23;11.57;;;;;;;15.55;100.00;101313.09;4979890;28;20034;-86
2023/07/20 03:34:36;;;;;;;18.80;11.20;;;;;;;15.52;100.00;101316.31;4979369;28;20026;-86
2023/07/20 03:37:04;;;;;;;15.00;11.30;;;;;;;15.46;100.00;101314.53;4963360;28;20041;-86
2023/07/20 03:39:29;;;;;;;16.67;11.03;;;;;;;15.43;100.00;101323.19;4963610;28;20113;-86
2023/07/20 03:41:55;;;;;;;15.52;11.07;;;;;;;15.43;100.00;101320.47;4963699;28;20463;-86
2023/07/20 03:44:20;;;;;;;18.10;12.37;;;;;;;15.43;100.00;101325.94;4979435;28;20033;-86
2023/07/20 03:46:46;;;;;;;20.00;13.23;;;;;;;15.40;100.00;101331.88;4963567;28;20063;-86
2023/07/20 03:49:11;;;;;;;20.83;13.07;;;;;;;15.38;100.00;101331.25;4978657;28;20505;-86
2023/07/20 03:51:36;;;;;;;15.50;12.02;;;;;;;15.36;100.00;101334.22;4996796;28;20054;-86
2023/07/20 03:54:02;;;;;;;17.43;11.63;;;;;;;15.40;100.00;101334.59;4996768;28;20034;-86
2023/07/20 03:56:27;;;;;;;18.27;11.73;;;;;;;15.40;100.00;101331.88;4978931;28;20026;-86
2023/07/20 03:58:53;;;;;;;15.23;10.77;;;;;;;15.39;100.00;101338.41;4961656;28;20466;-86
2023/07/20 04:01:19;;;;;;;14.10;10.57;;;;;;;15.35;100.00;101339.94;4996293;28;20031;-86
2023/07/20 04:03:44;;;;;;;16.60;11.37;;;;;;;15.31;100.00;101336.00;4978775;28;20034;-86
2023/07/20 04:06:10;;;;;;;18.35;10.88;;;;;;;15.25;100.00;101341.34;4978872;28;20447;-86
2023/07/20 04:08:37;;;;;;;15.90;10.00;;;;;;;15.22;100.00;101350.03;4995827;28;20035;-86
2023/07/20 04:11:02;;;;;;;15.05;10.55;;;;;;;15.23;100.00;101339.91;4978176;28;20030;-86
2023/07/20 04:13:28;;;;;;;14.70;10.23;;;;;;;15.23;100.00;101343.47;4978324;28;20478;-86
2023/07/20 04:15:54;;;;;;;13.35;9.35;;;;;;;15.26;100.00;101351.22;4962227;28;20035;-86
2023/07/20 04:18:20;;;;;;;14.13;9.48;;;;;;;15.32;100.00;101346.69;4979483;28;20038;-86
2023/07/20 04:20:45;;;;;;;12.77;9.43;;;;;;;15.33;100.00;101342.09;4977917;28;20407;-86
2023/07/20 04:23:12;;;;;;;12.52;9.27;;;;;;;15.36;100.00;101350.63;5010470;28;20446;-86
2023/07/20 04:25:39;;;;;;;12.47;9.00;;;;;;;15.37;100.00;101344.09;4962264;28;20038;-86
2023/07/20 04:28:11;;;;;;;12.43;8.82;;;;;;;15.40;100.00;101340.09;4995605;28;20030;-87
2023/07/20 04:30:40;;;;;;;11.48;8.52;;;;;;;15.37;100.00;101338.63;4995403;28;20035;-86
2023/07/20 04:33:05;;;;;;;9.87;8.00;;;;;;;15.29;100.00;101347.16;4962813;28;20503;-86
2023/07/20 04:35:50;;;;;;;10.98;8.07;;;;;;;15.21;100.00;101356.56;4977988;28;20031;-86
2023/07/20 04:38:17;;;;;;;10.13;8.25;;;;;;;15.12;100.00;101351.66;4978010;28;20053;-86
2023/07/20 04:40:44;;;;;;;10.90;8.18;;;;;;;15.03;100.00;101354.72;4994407;28;20470;-86
2023/07/20 04:43:09;;;;;;;14.10;9.00;;;;;;;14.99;100.00;101353.53;4978047;28;20053;-86
2023/07/20 04:45:35;;;;;;;12.40;9.82;;;;;;;14.91;100.00;101349.22;4978022;28;20038;-86
2023/07/20 04:48:00;;;;;;;14.10;10.03;;;;;;;14.89;100.00;101355.97;4977903;28;20030;-86
2023/07/20 04:50:28;;;;;;;16.03;10.73;;;;;;;14.87;100.00;101349.91;4994868;28;20037;-86
2023/07/20 04:52:54;;;;;;;17.55;12.15;;;;;;;14.83;100.00;101355.00;4978623;28;20125;-86
2023/07/20 04:55:21;;;;;;;16.13;11.97;;;;;;;14.79;100.00;101353.78;4993705;28;20081;-86
2023/07/20 04:57:47;;;;;;;16.45;11.73;;;;;;;14.78;100.00;101348.56;4962357;28;20026;-86
2023/07/20 05:00:14;;;;;;;16.10;11.83;;;;;;;14.78;100.00;101349.41;4977467;28;20360;-86
2023/07/20 05:02:39;;;;;;;17.70;12.63;;;;;;;14.80;100.00;101343.72;4977587;28;20022;-86
2023/07/20 05:05:05;;;;;;;19.23;13.20;;;;;;;14.80;100.00;101341.81;4977571;28;20026;-86
2023/07/20 05:07:31;;;;;;;19.90;13.27;;;;;;;14.79;100.00;101342.03;4994942;28;20498;-86
2023/07/20 05:09:57;;;;;;;22.42;13.48;;;;;;;14.77;100.00;101338.72;4961161;28;20035;-86
2023/07/20 05:12:23;;;;;;;18.47;13.43;;;;;;;14.74;100.00;101342.75;4994070;28;20034;-86
2023/07/20 05:14:48;;;;;;;19.47;13.53;;;;;;;14.73;100.00;101338.34;4977051;28;20034;-86
2023/07/20 05:17:13;;;;;;;16.40;13.27;;;;;;;14.73;100.00;101343.78;4995309;28;20320;-86
2023/07/20 05:19:39;;;;;;;15.83;12.07;;;;;;;14.74;100.00;101349.03;4977409;28;20038;-86
2023/07/20 05:22:05;;;;;;;18.47;12.90;;;;;;;14.75;100.00;101352.59;4961492;28;20042;-86
2023/07/20 05:24:33;;;;;;;19.92;13.18;;;;;;;14.76;100.00;101359.72;4977495;28;20085;-86
2023/07/20 05:26:58;;;;;;;18.58;12.70;;;;;;;14.73;100.00;101355.56;4976858;28;20042;-87
2023/07/20 05:29:25;;;;;;;17.07;12.10;;;;;;;14.76;100.00;101358.91;4994709;28;20474;-86
2023/07/20 05:31:50;;;;;;;15.98;12.18;;;;;;;14.77;100.00;101366.03;4960704;28;20077;-86
2023/07/20 05:34:16;;;;;;;15.30;11.73;;;;;;;14.78;100.00;101365.81;4977083;28;20038;-86
2023/07/20 05:36:41;;;;;;;15.13;10.25;;;;;;;14.85;100.00;101365.69;4961042;28;20064;-88
2023/07/20 05:39:07;;;;;;;15.73;10.23;;;;;;;14.91;100.00;101367.50;4977106;28;20034;-88
2023/07/20 05:41:33;;;;;;;13.17;10.57;;;;;;;14.97;100.00;101365.75;4945438;28;20035;-88
2023/07/20 05:44:01;;;;;;;14.25;10.38;;;;;;;15.00;100.00;101370.72;4961128;28;20432;-89
2023/07/20 05:46:26;;;;;;;13.43;9.60;;;;;;;15.03;100.00;101373.03;4961243;28;20034;-88
2023/07/20 05:49:01;;;;;;;12.27;9.13;;;;;;;15.03;100.00;101371.13;4960560;28;20045;-89
2023/07/20 05:51:30;;;;;;;11.82;7.95;;;;;;;15.07;100.00;101375.06;4951800;28;20491;-89
2023/07/20 05:53:55;;;;;;;8.93;7.90;;;;;;;15.11;100.00;101375.41;4975450;28;20043;-90
2023/07/20 05:56:23;;;;;;;12.02;7.45;;;;;;;15.19;100.00;101377.84;4975004;28;20031;-92
2023/07/20 05:58:51;;;;;;;7.45;6.35;;;;;;;15.22;100.00;101365.56;4958901;28;20438;-94
2023/07/20 06:01:28;;;;;;;;;;;;;;;;;;;;;
2023/07/20 06:04:07;;;;;;;8.65;6.18;;;;;;;15.33;100.00;101383.91;4916545;29;20071;-90
2023/07/20 06:06:32;;;;;;;8.57;5.97;;;;;;;15.41;100.00;101382.75;4966625;28;20129;-89
2023/07/20 06:08:58;;;;;;;7.67;6.00;;;;;;;15.47;100.00;101378.22;4957623;28;20080;-88
2023/07/20 06:11:23;;;;;;;7.57;5.38;;;;;;;15.54;100.00;101374.31;4941278;28;20055;-89
2023/07/20 06:13:49;;;;;;;7.67;5.80;;;;;;;15.58;100.00;101383.72;4957493;28;20034;-88
2023/07/20 06:16:14;;;;;;;8.70;6.30;;;;;;;15.64;100.00;101378.38;4957228;28;20062;-88
2023/07/20 06:18:40;;;;;;;7.80;6.13;;;;;;;15.69;100.00;101382.06;4958197;28;20038;-88
2023/07/20 06:21:05;;;;;;;9.93;6.00;;;;;;;15.71;100.00;101382.66;4941630;28;20635;-88
2023/07/20 06:23:33;;;;;;;8.90;5.93;;;;;;;15.79;100.00;101389.72;4961720;28;20078;-89
2023/07/20 06:25:58;;;;;;;9.32;6.25;;;;;;;15.93;100.00;101393.06;4978444;28;20019;-87
2023/07/20 06:28:32;;;;;;;8.43;5.63;;;;;;;16.09;100.00;101389.63;4960831;28;20053;-91
2023/07/20 06:31:02;;;;;;;7.72;5.85;;;;;;;16.26;100.00;101397.09;4931137;28;20031;-92
2023/07/20 06:33:27;;;;;;;7.07;5.75;;;;;;;16.53;100.00;101396.56;4962216;28;20034;-91
2023/07/20 06:35:58;;;;;;;6.93;5.47;;;;;;;16.87;100.00;101389.31;4978697;28;20054;-91
2023/07/20 06:38:26;;;;;;;6.85;6.10;;;;;;;17.17;100.00;101386.34;4977836;28;20031;-92
2023/07/20 06:40:52;;;;;;;9.07;6.80;;;;;;;17.59;100.00;101387.88;4961152;28;20070;-91
2023/07/20 06:43:20;;;;;;;10.00;7.22;;;;;;;17.84;99.46;101386.63;4961512;28;20042;-91
2023/07/20 06:45:52;;;;;;;8.63;7.23;;;;;;;18.00;97.28;101382.22;4961106;28;20038;-91
2023/07/20 06:48:24;;;;;;;11.50;7.95;;;;;;;18.12;95.81;101382.94;4962203;28;20038;-91
2023/07/20 06:50:57;;;;;;;10.88;7.47;;;;;;;18.15;95.57;101379.69;4981065;28;20046;-91
2023/07/20 06:53:25;;;;;;;9.70;7.28;;;;;;;18.22;94.90;101382.25;4980404;28;20034;-91
2023/07/20 06:55:59;;;;;;;9.52;7.25;;;;;;;18.20;94.66;101381.66;4980053;28;20132;-91
2023/07/20 06:58:52;;;;;;;5.80;4.10;;;;;;;18.07;93.52;101382.88;4965472;28;20054;-91
2023/07/20 07:01:38;;;;;;;10.60;6.28;;;;;;;18.00;94.02;101393.19;4980296;28;20040;-93
2023/07/20 07:04:09;;;;;;;7.90;7.07;;;;;;;17.99;94.07;101394.28;4979660;28;20091;-93
2023/07/20 07:06:36;;;;;;;6.70;5.95;;;;;;;18.05;91.69;101390.53;4980899;28;20023;-91
2023/07/20 07:09:09;;;;;;;9.20;6.30;;;;;;;18.20;91.26;101396.25;4997792;28;20084;-92
2023/07/20 07:11:41;;;;;;;8.53;6.23;;;;;;;18.40;90.53;101392.09;4980066;28;20038;-89
2023/07/20 07:14:09;;;;;;;6.88;4.00;;;;;;;18.67;88.76;101399.56;4979710;28;20038;-90
2023/07/20 07:16:35;;;;;;;4.72;2.90;;;;;;;18.86;85.72;101403.69;4979581;28;20539;-90
2023/07/20 07:19:03;;;;;;;5.60;2.87;;;;;;;19.13;85.49;101404.78;4979972;28;20150;-91
2023/07/20 07:21:31;;;;;;;2.75;2.47;;;;;;;19.32;84.99;101403.31;4997195;28;20081;-91
2023/07/20 07:24:03;;;;;;;3.22;2.33;;;;;;;19.50;81.91;101401.28;4979787;28;20060;-91
2023/07/20 07:26:38;;;;;;;2.55;1.80;;;;;;;19.66;79.22;101396.75;4980341;28;20031;-91
2023/07/20 07:29:06;;;;;;;3.05;2.08;;;;;;;19.84;79.20;101401.84;4997473;28;20062;-91
2023/07/20 07:31:35;;;;;;;5.33;2.80;;;;;;;19.86;79.62;101398.84;4979278;28;20033;-91
2023/07/20 07:34:03;;;;;;;5.90;2.60;;;;;;;20.03;79.52;101395.94;4979278;28;20036;-91
2023/07/20 07:36:30;;;;;;;3.05;2.47;;;;;;;20.14;78.76;101405.91;4980025;28;20062;-91
2023/07/20 07:38:58;;;;;;;4.97;3.28;;;;;;;20.20;76.56;101410.38;4963711;28;20049;-91
2023/07/20 07:41:26;;;;;;;3.65;2.67;;;;;;;20.24;76.82;101410.66;4955606;28;20137;-90
2023/07/20 07:43:54;;;;;;;2.90;2.33;;;;;;;20.29;75.29;101413.44;5012088;28;20101;-91
2023/07/20 07:46:19;;;;;;;6.13;3.05;;;;;;;20.36;75.88;101405.78;4963306;28;20034;-91
2023/07/20 07:48:45;;;;;;;5.28;2.50;;;;;;;20.52;74.68;101406.66;4979343;28;20088;-91
2023/07/20 07:51:10;;;;;;;3.07;2.70;;;;;;;20.47;73.46;101412.97;4974968;28;20062;-90
2023/07/20 07:53:49;;;;;;;4.30;2.37;;;;;;;20.30;73.01;101420.63;4996274;28;20494;-91
2023/07/20 07:56:22;;;;;;;2.67;2.10;;;;;;;20.23;73.19;101417.28;4964941;28;20471;-89
2023/07/20 07:58:48;;;;;;;3.05;1.50;;;;;;;20.24;72.71;101419.75;4978993;28;20042;-85
2023/07/20 08:01:16;;;;;;;1.70;1.30;;;;;;;20.32;72.53;101424.75;4962599;28;20046;-88
2023/07/20 08:03:51;;;;;;;2.42;1.33;;;;;;;20.46;71.72;101419.59;4947452;28;20077;-92
2023/07/20 08:06:20;;;;;;;3.00;1.33;;;;;;;20.67;70.52;101425.25;4979460;28;20122;-87
2023/07/20 08:08:48;;;;;;;3.75;1.55;;;;;;;;;;5011339;28;20129;-87
2023/07/20 08:11:13;;;;;;;2.70;1.30;;;;;;;20.70;68.49;101421.09;4978617;28;20030;-88
2023/07/20 08:13:44;;;;;;;1.73;0.90;;;;;;;20.70;67.34;101427.47;4978135;28;20029;-88
2023/07/20 08:16:17;;;;;;;4.15;1.20;;;;;;;20.65;66.28;101419.97;4978445;28;20030;-88
2023/07/20 08:18:46;;;;;;;1.52;0.98;;;;;;;20.81;66.99;101426.38;4980204;28;20049;-88
2023/07/20 08:21:24;;;;;;;2.10;0.93;;;;;;;20.88;65.93;101422.56;4978047;28;20037;-88
2023/07/20 08:23:57;;;;;;;1.70;0.90;;;;;;;20.93;65.29;101423.38;4963857;28;20088;-88
2023/07/20 08:26:23;;;;;;;1.63;1.00;;;;;;;20.95;63.00;101432.22;4962487;28;20112;-87
2023/07/20 08:28:49;;;;;;;4.57;1.10;;;;;;;20.98;63.29;101423.41;5010665;28;20466;-87
2023/07/20 08:31:14;;;;;;;1.50;1.07;;;;;;;20.86;63.68;101420.06;4977869;28;20034;-87
2023/07/20 08:33:45;;;;;;;1.30;0.57;;;;;;;20.81;64.41;101425.56;4978100;28;20034;-89
2023/07/20 08:36:11;;;;;;;1.23;0.80;;;;;;;20.72;62.39;101422.50;4978587;28;20097;-87
2023/07/20 08:38:36;;;;;;;0.87;0.73;;;;;;;20.71;64.46;101423.56;5010494;28;20034;-87
2023/07/20 08:41:02;;;;;;;1.67;0.97;;;;;;;20.65;63.52;101422.72;4977799;28;20708;-87
2023/07/20 08:43:28;;;;;;;2.30;1.00;;;;;;;20.72;65.21;101416.16;4995827;28;20045;-87
2023/07/20 08:46:03;;;;;;;1.63;1.30;;;;;;;20.66;64.00;101415.31;4995137;28;20029;-87
2023/07/20 08:48:33;;;;;;;2.22;1.17;;;;;;;20.52;63.06;101409.41;5009799;28;20038;-88
2023/07/20 08:51:04;;;;;;;2.88;1.00;;;;;;;20.44;64.35;101418.19;4977289;28;20022;-87
2023/07/20 08:53:33;;;;;;;1.50;0.90;;;;;;;20.44;63.27;101408.00;4977581;28;20036;-88
2023/07/20 08:56:04;;;;;;;2.53;1.08;;;;;;;20.36;63.86;101414.03;4977570;28;20126;-88
2023/07/20 08:58:30;;;;;;;1.20;0.70;;;;;;;20.47;63.63;101410.22;4977561;28;20041;-86
2023/07/20 09:00:58;;;;;;;1.10;0.70;;;;;;;20.71;63.26;101401.53;4977803;28;20038;-85
2023/07/20 09:03:25;;;;;;;2.20;0.90;;;;;;;20.94;62.17;101407.69;5002162;28;20073;-89
2023/07/20 09:05:50;;;;;;;2.35;0.90;;;;;;;21.12;60.58;101406.34;4977363;28;20100;-89
2023/07/20 09:08:18;;;;;;;1.10;0.77;;;;;;;21.28;60.75;101404.44;4977594;28;20034;-88
2023/07/20 09:10:46;;;;;;;1.50;0.80;;;;;;;21.53;61.09;101398.94;4994035;28;20313;-88
2023/07/20 09:13:41;;;;;;;1.50;1.00;;;;;;;21.78;61.38;101402.00;4978060;28;20035;-88
2023/07/20 09:16:15;;;;;;;2.78;1.02;;;;;;;21.65;57.87;101401.44;5001291;28;20391;-88
2023/07/20 09:18:41;;;;;;;3.67;0.80;;;;;;;21.49;57.79;101403.31;4977165;28;20033;-88
2023/07/20 09:21:09;;;;;;;1.05;0.80;;;;;;;21.48;58.28;101396.16;4961847;28;20078;-88
2023/07/20 09:23:37;;;;;;;1.60;0.90;;;;;;;21.32;58.03;101400.03;4977772;28;20103;-88
2023/07/20 09:26:14;;;;;;;1.30;0.70;;;;;;;21.35;58.17;101396.72;4977274;28;20042;-87
2023/07/20 09:28:50;;;;;;;1.00;0.50;;;;;;;21.35;56.31;101402.25;4977557;28;20117;-88
2023/07/20 09:31:20;;;;;;;1.33;0.60;;;;;;;21.48;55.21;101398.94;4994961;28;20026;-87
2023/07/20 09:33:46;;;;;;;2.65;0.77;;;;;;;21.53;54.59;101396.19;4977237;28;20057;-87
2023/07/20 09:36:15;;;;;;;1.17;0.80;;;;;;;21.86;53.62;101388.41;4977144;28;20038;-88
2023/07/20 09:38:51;;;;;;;1.73;0.82;;;;;;;22.38;55.01;101393.84;4994272;28;20027;-88
2023/07/20 09:41:20;;;;;;;1.85;1.00;;;;;;;22.66;54.34;101391.53;4994102;28;20034;-88
2023/07/20 09:43:46;;;;;;;1.77;1.10;;;;;;;22.77;55.97;101387.63;4976726;28;20126;-88
2023/07/20 09:46:12;;;;;;;1.90;1.23;;;;;;;22.92;56.08;101390.28;4976844;28;20030;-87
2023/07/20 09:49:00;;;;;;;2.55;1.83;;;;;;;22.87;55.87;101403.31;4976753;28;20060;-88
2023/07/20 09:51:26;;;;;;;1.40;0.90;;;;;;;22.63;55.90;101394.88;4976845;28;20081;-88
2023/07/20 09:53:57;;;;;;;1.02;0.80;;;;;;;22.55;55.86;101396.28;4976391;28;20046;-88
2023/07/20 09:56:25;;;;;;;2.70;1.10;;;;;;;22.41;55.49;101390.53;4975880;28;20134;-88
2023/07/20 09:58:52;;;;;;;3.55;1.27;;;;;;;22.30;56.39;101391.66;4977538;28;20085;-88
2023/07/20 10:01:23;;;;;;;2.58;1.20;;;;;;;22.45;56.39;101382.50;4994226;28;20034;-88
2023/07/20 10:03:53;;;;;;;3.50;1.00;;;;;;;22.84;55.28;101387.28;4976692;28;20121;-88
2023/07/20 10:06:23;;;;;;;1.35;0.95;;;;;;;23.24;53.80;101385.41;4976494;28;20438;-88
2023/07/20 10:08:52;;;;;;;1.30;1.00;;;;;;;23.47;52.35;101389.38;4976805;28;20027;-88
2023/07/20 10:11:18;;;;;;;1.88;0.82;;;;;;;23.66;52.09;101386.72;4976575;28;20038;-87
2023/07/20 10:13:46;;;;;;;2.20;1.00;;;;;;;23.70;52.38;101381.44;4976631;28;20039;-88
2023/07/20 10:16:17;;;;;;;4.57;0.97;;;;;;;23.83;51.96;101386.31;4961508;28;20045;-87
2023/07/20 10:19:06;;;;;;;1.35;0.85;;;;;;;24.24;53.17;101382.28;4977513;28;20037;-88
2023/07/20 10:21:35;;;;;;;3.60;0.80;;;;;;;24.60;49.56;101370.78;4994157;28;20023;-88
2023/07/20 10:24:04;;;;;;;1.80;0.80;;;;;;;24.67;48.91;101377.63;4976453;28;20033;-88
2023/07/20 10:26:36;;;;;;;3.35;1.20;;;;;;;24.75;49.26;101378.06;4976721;28;20054;-88
2023/07/20 10:29:03;;;;;;;1.40;0.80;;;;;;;24.90;48.57;101377.84;4976731;28;20033;-88
2023/07/20 10:31:29;;;;;;;1.98;1.10;;;;;;;25.00;46.38;101377.69;4993975;28;20027;-88
2023/07/20 10:34:05;;;;;;;1.20;0.90;;;;;;;24.97;45.77;101371.94;4976703;28;20073;-88
2023/07/20 10:36:33;;;;;;;1.27;0.88;;;;;;;24.67;45.01;101371.22;4976465;28;20038;-87
2023/07/20 10:38:58;;;;;;;3.83;0.93;;;;;;;24.65;44.81;101359.59;4976390;28;20034;-88
2023/07/20 10:41:43;;;;;;;1.50;0.80;;;;;;;24.53;46.02;101365.56;4960805;28;20045;-95
2023/07/20 10:44:13;;;;;;;2.20;0.90;;;;;;;24.65;46.24;101359.59;4947865;28;20077;-92
2023/07/20 10:46:45;;;;;;;1.10;0.80;;;;;;;24.75;46.23;101362.25;4961743;28;20053;-90
2023/07/20 10:49:26;;;;;;;;;;;;;;;;;;;;;
2023/07/20 10:51:58;;;;;;;1.77;1.13;;;;;;;25.17;44.56;101351.34;4991062;28;20060;-92
2023/07/20 10:54:34;;;;;;;1.75;1.17;;;;;;;25.14;43.79;101352.78;4976704;28;20066;-93
2023/07/20 10:57:23;;;;;;;1.92;0.80;;;;;;;24.81;45.93;101355.50;4976878;28;20035;-92
2023/07/20 10:59:51;;;;;;;1.35;1.00;;;;;;;24.33;44.95;101355.53;4976253;28;20122;-93
2023/07/20 11:02:28;;;;;;;1.70;0.90;;;;;;;24.02;46.84;101355.09;4977841;28;20038;-96
2023/07/20 11:04:56;;;;;;;3.35;0.80;;;;;;;24.05;47.67;101357.25;4976825;28;20080;-93
2023/07/20 11:07:43;;;;;;;1.10;0.85;;;;;;;24.21;48.21;101353.19;4978073;28;20038;-92
2023/07/20 11:10:17;;;;;;;1.45;0.90;;;;;;;24.37;47.06;101355.78;4979457;28;20038;-92
2023/07/20 11:13:25;;;;;;;1.45;1.00;;;;;;;24.40;47.14;101355.19;4979135;28;20026;-90
2023/07/20 11:16:15;;;;;;;1.47;0.90;;;;;;;24.58;47.07;101345.25;4996613;28;20045;-92
2023/07/20 11:18:43;;;;;;;1.80;0.90;;;;;;;24.55;45.82;101343.06;4978921;28;20034;-91
2023/07/20 11:21:17;;;;;;;2.42;0.80;;;;;;;24.77;46.82;101336.97;4979363;28;20386;-92
2023/07/20 11:23:46;;;;;;;3.28;1.30;;;;;;;24.77;45.03;101350.84;4963760;28;20084;-91